createdAt,value
2023-09-23T00:01:33.078Z,98111.81
2023-09-23T00:04:35.896Z,98111.03
2023-09-23T00:07:39.836Z,98115.03
2023-09-23T00:10:42.672Z,98121.41
2023-09-23T00:13:45.239Z,98120.63
2023-09-23T00:16:48.243Z,98129.44
2023-09-23T00:19:51.008Z,98130.22
2023-09-23T00:22:56.195Z,98127.44
2023-09-23T00:25:58.869Z,98123.06
2023-09-23T00:29:01.529Z,98129.44
2023-09-23T00:32:04.673Z,98124.28
2023-09-23T00:35:08.407Z,98121.50
2023-09-23T00:38:13.022Z,98123.06
2023-09-23T00:41:16.271Z,98131.47
2023-09-23T00:44:19.863Z,98125.06
2023-09-23T00:47:22.452Z,98117.47
2023-09-23T00:50:25.238Z,98118.69
2023-09-23T00:53:30.187Z,98118.69
2023-09-23T00:56:33.332Z,98120.72
2023-09-23T00:59:36.709Z,98122.72
2023-09-23T01:02:39.866Z,98127.53
2023-09-23T01:05:42.503Z,98125.53
2023-09-23T01:08:47.542Z,98126.75
2023-09-23T01:11:52.208Z,98123.94
2023-09-23T01:14:59.404Z,98131.13
2023-09-23T01:18:02.408Z,98134.31
2023-09-23T01:21:09.468Z,98139.91
2023-09-23T01:24:13.396Z,98147.50
2023-09-23T01:27:15.972Z,98148.31
2023-09-23T01:30:21.815Z,98151.09
2023-09-23T01:33:24.649Z,98152.31
2023-09-23T01:36:27.349Z,98157.13
2023-09-23T01:39:33.254Z,98170.31
2023-09-23T01:42:36.728Z,98179.50
2023-09-23T01:45:39.565Z,98189.09
2023-09-23T01:48:43.022Z,98186.31
2023-09-23T01:51:47.800Z,98179.16
2023-09-23T01:54:51.943Z,98167.97
2023-09-23T01:57:54.596Z,98163.59
2023-09-23T02:00:59.301Z,98168.75
2023-09-23T02:04:02.761Z,98173.56
2023-09-23T02:07:05.655Z,98180.38
2023-09-23T02:10:12.541Z,98186.47
2023-09-23T02:13:15.328Z,98184.41
2023-09-23T02:16:19.892Z,98199.94
2023-09-23T02:19:22.650Z,98205.16
2023-09-23T02:22:25.362Z,98202.03
2023-09-23T02:25:29.345Z,98206.38
2023-09-23T02:28:31.904Z,98192.84
2023-09-23T02:31:36.912Z,98190.50
2023-09-23T02:34:40.484Z,98203.69
2023-09-23T02:37:45.376Z,98210.06
2023-09-23T02:40:51.295Z,98204.47
2023-09-23T02:43:54.563Z,98214.88
2023-09-23T02:46:57.284Z,98219.66
2023-09-23T02:49:59.865Z,98227.25
2023-09-23T02:53:02.413Z,98222.09
2023-09-23T02:56:08.414Z,98227.25
2023-09-23T02:59:15.077Z,98236.84
2023-09-23T03:02:23.903Z,98241.22
2023-09-23T03:05:30.172Z,98254.41
2023-09-23T03:08:33.375Z,98257.59
2023-09-23T03:11:43.508Z,98253.22
2023-09-23T03:14:52.856Z,98251.63
2023-09-23T03:17:55.451Z,98262.78
2023-09-23T03:20:58.963Z,98270.41
2023-09-23T03:24:02.596Z,98272.41
2023-09-23T03:27:06.843Z,98268.81
2023-09-23T03:30:13.663Z,98274.41
2023-09-23T03:33:17.193Z,98272.06
2023-09-23T03:36:21.523Z,98284.81
2023-09-23T03:39:25.825Z,98290.41
2023-09-23T03:42:31.456Z,98290.06
2023-09-23T03:45:35.026Z,98288.03
2023-09-23T03:48:38.756Z,98290.06
2023-09-23T03:51:41.370Z,98297.66
2023-09-23T03:54:43.934Z,98298.44
2023-09-23T03:57:47.985Z,98286.47
2023-09-23T04:00:50.679Z,98294.06
2023-09-23T04:03:53.495Z,98296.03
2023-09-23T04:06:56.655Z,98298.06
2023-09-23T04:09:59.366Z,98300.06
2023-09-23T04:13:03.427Z,98299.28
2023-09-23T04:16:06.728Z,98297.25
2023-09-23T04:19:09.536Z,98302.84
2023-09-23T04:22:12.899Z,98302.06
2023-09-23T04:25:16.041Z,98303.72
2023-09-23T04:28:20.212Z,98300.94
2023-09-23T04:31:26.067Z,98305.72
2023-09-23T04:34:28.662Z,98311.31
2023-09-23T04:37:31.312Z,98307.31
2023-09-23T04:40:33.931Z,98314.47
2023-09-23T04:43:37.824Z,98315.69
2023-09-23T04:46:40.574Z,98319.28
2023-09-23T04:49:44.751Z,98314.13
2023-09-23T04:52:48.270Z,98322.50
2023-09-23T04:55:50.941Z,98328.88
2023-09-23T04:58:59.586Z,98337.69
2023-09-23T05:02:02.411Z,98323.69
2023-09-23T05:05:05.686Z,98329.28
2023-09-23T05:08:11.139Z,98332.91
2023-09-23T05:11:14.402Z,98331.28
2023-09-23T05:14:18.403Z,98341.66
2023-09-23T05:17:27.485Z,98348.84
2023-09-23T05:20:32.076Z,98352.84
2023-09-23T05:23:34.953Z,98353.28
2023-09-23T05:26:37.350Z,98365.25
2023-09-23T05:29:41.808Z,98360.09
2023-09-23T05:32:45.354Z,98368.91
2023-09-23T05:35:48.249Z,98369.69
2023-09-23T05:38:50.711Z,98376.84
2023-09-23T05:41:54.756Z,98382.88
2023-09-23T05:44:58.624Z,98389.69
2023-09-23T05:48:01.185Z,98390.88
2023-09-23T05:51:07.845Z,98404.84
2023-09-23T05:54:10.621Z,98400.03
2023-09-23T05:57:13.272Z,98396.47
2023-09-23T06:00:18.609Z,98406.47
2023-09-23T06:03:21.292Z,98409.59
2023-09-23T06:06:23.924Z,98413.63
2023-09-23T06:09:26.491Z,98421.22
2023-09-23T06:12:31.220Z,98419.63
2023-09-23T06:15:35.512Z,98426.03
2023-09-23T06:18:38.079Z,98439.19
2023-09-23T06:21:40.667Z,98441.19
2023-09-23T06:24:43.462Z,98443.97
2023-09-23T06:27:46.071Z,98446.78
2023-09-23T06:30:50.032Z,98457.94
2023-09-23T06:33:52.591Z,98457.94
2023-09-23T06:36:55.162Z,98457.94
2023-09-23T06:39:57.818Z,98460.75
2023-09-23T06:43:00.344Z,98459.97
2023-09-23T06:46:04.466Z,98461.97
2023-09-23T06:49:07.164Z,98466.34
2023-09-23T06:52:09.852Z,98472.72
2023-09-23T06:55:12.409Z,98471.94
2023-09-23T06:58:14.994Z,98474.72
2023-09-23T07:01:19.162Z,98483.91
2023-09-23T07:04:21.908Z,98497.06
2023-09-23T07:07:24.412Z,98489.88
2023-09-23T07:10:27.098Z,98504.69
2023-09-23T07:13:31.678Z,98498.69
2023-09-23T07:16:35.730Z,98501.47
2023-09-23T07:19:38.313Z,98493.88
2023-09-23T07:22:40.853Z,98489.09
2023-09-23T07:25:44.362Z,98499.47
2023-09-23T07:28:46.917Z,98500.25
2023-09-23T07:31:50.953Z,98504.28
2023-09-23T07:34:53.646Z,98510.22
2023-09-23T07:37:56.308Z,98517.38
2023-09-23T07:40:58.917Z,98518.97
2023-09-23T07:44:01.461Z,98530.94
2023-09-23T07:47:05.483Z,98530.94
2023-09-23T07:50:08.617Z,98542.13
2023-09-23T07:53:11.222Z,98546.50
2023-09-23T07:56:16.573Z,98550.09
2023-09-23T07:59:19.186Z,98556.50
2023-09-23T08:02:23.199Z,98556.88
2023-09-23T08:05:26.409Z,98558.09
2023-09-23T08:08:29.118Z,98561.66
2023-09-23T08:11:31.962Z,98568.06
2023-09-23T08:14:34.433Z,98577.59
2023-09-23T08:17:39.843Z,98580.81
2023-09-23T08:20:42.600Z,98577.66
2023-09-23T08:23:45.653Z,98595.56
2023-09-23T08:26:48.552Z,98600.34
2023-09-23T08:29:51.951Z,98598.75
2023-09-23T08:32:56.336Z,98602.34
2023-09-23T08:35:59.058Z,98609.50
2023-09-23T08:39:01.698Z,98613.88
2023-09-23T08:42:05.673Z,98613.09
2023-09-23T08:45:09.334Z,98609.31
2023-09-23T08:48:14.418Z,98609.63
2023-09-23T08:51:20.441Z,98620.22
2023-09-23T08:54:24.716Z,98620.41
2023-09-23T08:57:27.697Z,98623.69
2023-09-23T09:00:31.873Z,98619.78
2023-09-23T09:03:36.191Z,98619.88
2023-09-23T09:06:48.348Z,98625.56
2023-09-23T09:09:50.939Z,98620.09
2023-09-23T09:12:56.038Z,98627.25
2023-09-23T09:16:00.017Z,98623.69
2023-09-23T09:19:03.919Z,98632.13
2023-09-23T09:22:06.438Z,98617.03
2023-09-23T09:25:11.316Z,98617.84
2023-09-23T09:28:14.070Z,98611.50
2023-09-23T09:31:18.045Z,98615.50
2023-09-23T09:34:26.376Z,98605.94
2023-09-23T09:37:29.546Z,98622.28
2023-09-23T09:40:32.130Z,98617.94
2023-09-23T09:43:35.190Z,98616.41
2023-09-23T09:46:37.793Z,98609.22
2023-09-23T09:49:42.996Z,98620.41
2023-09-23T09:52:46.324Z,98617.25
2023-09-23T09:55:49.048Z,98616.03
2023-09-23T09:58:51.586Z,98602.13
2023-09-23T10:01:54.542Z,98609.72
2023-09-23T10:05:04.599Z,98620.47
2023-09-23T10:08:14.531Z,98611.69
2023-09-23T10:11:18.375Z,98618.84
2023-09-23T10:14:21.225Z,98631.56
2023-09-23T10:17:31.642Z,98626.81
2023-09-23T10:20:36.084Z,98624.03
2023-09-23T10:23:40.620Z,98635.63
2023-09-23T10:26:45.283Z,98620.44
2023-09-23T10:29:49.164Z,98620.44
2023-09-23T10:32:52.616Z,98627.63
2023-09-23T10:35:58.056Z,98621.25
2023-09-23T10:39:01.108Z,98627.25
2023-09-23T10:42:03.513Z,98626.84
2023-09-23T10:45:07.041Z,98616.91
2023-09-23T10:48:10.167Z,98620.47
2023-09-23T10:51:14.218Z,98630.03
2023-09-23T10:54:18.729Z,98628.47
2023-09-23T10:57:21.459Z,98630.03
2023-09-23T11:00:26.373Z,98625.66
2023-09-23T11:03:29.438Z,98627.22
2023-09-23T11:06:34.353Z,98620.41
2023-09-23T11:09:37.839Z,98625.97
2023-09-23T11:12:43.799Z,98626.69
2023-09-23T11:15:46.975Z,98626.22
2023-09-23T11:18:49.892Z,98638.13
2023-09-23T11:21:53.807Z,98633.72
2023-09-23T11:24:57.485Z,98632.47
2023-09-23T11:28:00.993Z,98631.25
2023-09-23T11:31:03.594Z,98637.97
2023-09-23T11:34:06.307Z,98636.31
2023-09-23T11:37:10.188Z,98639.03
2023-09-23T11:40:14.192Z,98631.44
2023-09-23T11:43:17.017Z,98638.19
2023-09-23T11:46:23.051Z,98627.78
2023-09-23T11:49:25.621Z,98638.13
2023-09-23T11:52:29.534Z,98638.09
2023-09-23T11:55:33.672Z,98638.47
2023-09-23T11:58:36.501Z,98643.22
2023-09-23T12:01:39.088Z,98648.38
2023-09-23T12:04:41.762Z,98647.97
2023-09-23T12:07:45.809Z,98643.19
2023-09-23T12:10:49.093Z,98645.53
2023-09-23T12:13:53.382Z,98643.56
2023-09-23T12:16:55.932Z,98641.56
2023-09-23T12:19:58.688Z,98636.00
2023-09-23T12:23:03.112Z,98639.56
2023-09-23T12:26:06.024Z,98633.56
2023-09-23T12:29:08.832Z,98639.94
2023-09-23T12:32:12.905Z,98641.09
2023-09-23T12:35:15.573Z,98651.06
2023-09-23T12:38:19.717Z,98653.84
2023-09-23T12:41:22.709Z,98660.22
2023-09-23T12:44:25.251Z,98662.63
2023-09-23T12:47:37.414Z,98655.84
2023-09-23T12:50:47.513Z,98659.84
2023-09-23T12:53:51.385Z,98659.84
2023-09-23T12:56:55.558Z,98658.63
2023-09-23T12:59:58.574Z,98659.41
2023-09-23T13:03:01.049Z,98657.78
2023-09-23T13:06:03.712Z,98659.78
2023-09-23T13:09:07.629Z,98664.16
2023-09-23T13:12:10.293Z,98664.16
2023-09-23T13:15:13.498Z,98668.13
2023-09-23T13:18:17.611Z,98665.69
2023-09-23T13:21:20.346Z,98668.88
2023-09-23T13:24:24.378Z,98672.06
2023-09-23T13:27:27.108Z,98674.00
2023-09-23T13:30:29.874Z,98670.00
2023-09-23T13:33:32.691Z,98679.94
2023-09-23T13:36:35.332Z,98685.44
2023-09-23T13:39:39.406Z,98671.78
2023-09-23T13:42:41.985Z,98674.13
2023-09-23T13:45:45.780Z,98675.69
2023-09-23T13:48:48.464Z,98685.63
2023-09-23T13:51:51.452Z,98688.34
2023-09-23T13:54:55.404Z,98697.50
2023-09-23T13:57:58.051Z,98693.84
2023-09-23T14:01:00.622Z,98689.03
2023-09-23T14:04:03.300Z,98698.56
2023-09-23T14:07:05.870Z,98685.03
2023-09-23T14:10:21.268Z,98695.38
2023-09-23T14:13:25.066Z,98688.59
2023-09-23T14:16:27.709Z,98709.75
2023-09-23T14:19:30.320Z,98698.53
2023-09-23T14:22:32.962Z,98705.78
2023-09-23T14:25:36.919Z,98708.59
2023-09-23T14:28:42.303Z,98715.03
2023-09-23T14:31:44.914Z,98715.84
2023-09-23T14:34:47.503Z,98715.84
2023-09-23T14:37:50.116Z,98719.00
2023-09-23T14:40:53.987Z,98722.66
2023-09-23T14:43:56.694Z,98717.41
2023-09-23T14:46:59.188Z,98728.19
2023-09-23T14:50:01.986Z,98729.03
2023-09-23T14:53:04.672Z,98737.03
2023-09-23T14:56:08.623Z,98745.47
2023-09-23T14:59:11.325Z,98754.28
2023-09-23T15:02:13.899Z,98747.09
2023-09-23T15:05:16.742Z,98753.88
2023-09-23T15:08:19.617Z,98757.09
2023-09-23T15:11:23.646Z,98763.91
2023-09-23T15:14:26.416Z,98767.91
2023-09-23T15:17:29.692Z,98768.31
2023-09-23T15:20:32.471Z,98773.91
2023-09-23T15:23:35.205Z,98776.31
2023-09-23T15:26:39.231Z,98781.50
2023-09-23T15:29:42.135Z,98779.88
2023-09-23T15:32:45.352Z,98780.63
2023-09-23T15:35:48.096Z,98775.44
2023-09-23T15:38:50.826Z,98779.84
2023-09-23T15:41:54.784Z,98778.63
2023-09-23T15:44:57.556Z,98781.00
2023-09-23T15:48:00.262Z,98787.75
2023-09-23T15:51:10.059Z,98785.28
2023-09-23T15:54:12.806Z,98791.31
2023-09-23T15:57:16.775Z,98792.84
2023-09-23T16:00:19.934Z,98802.41
2023-09-23T16:03:22.566Z,98812.00
2023-09-23T16:06:25.207Z,98820.00
2023-09-23T16:09:28.020Z,98824.81
2023-09-23T16:12:32.020Z,98829.22
2023-09-23T16:15:34.698Z,98831.25
2023-09-23T16:18:37.857Z,98836.00
2023-09-23T16:21:40.574Z,98835.16
2023-09-23T16:24:43.254Z,98841.56
2023-09-23T16:27:47.631Z,98842.38
2023-09-23T16:30:50.197Z,98841.63
2023-09-23T16:33:52.804Z,98851.59
2023-09-23T16:36:56.203Z,98848.84
2023-09-23T16:39:58.879Z,98858.06
2023-09-23T16:43:02.911Z,98857.69
2023-09-23T16:46:06.342Z,98860.06
2023-09-23T16:49:08.991Z,98856.13
2023-09-23T16:52:12.481Z,98868.50
2023-09-23T16:55:17.417Z,98863.34
2023-09-23T16:58:23.891Z,98870.94
2023-09-23T17:01:26.552Z,98869.75
2023-09-23T17:04:30.270Z,98872.97
2023-09-23T17:07:33.328Z,98874.56
2023-09-23T17:10:35.986Z,98884.94
2023-09-23T17:13:40.119Z,98896.53
2023-09-23T17:16:42.684Z,98892.94
2023-09-23T17:19:46.515Z,98895.38
2023-09-23T17:22:49.066Z,98900.56
2023-09-23T17:25:52.813Z,98898.97
2023-09-23T17:29:00.416Z,98910.56
2023-09-23T17:32:03.097Z,98915.38
2023-09-23T17:35:06.402Z,98917.75
2023-09-23T17:38:09.165Z,98927.34
2023-09-23T17:41:12.913Z,98913.78
2023-09-23T17:44:16.965Z,98929.78
2023-09-23T17:47:19.566Z,98927.38
2023-09-23T17:50:22.384Z,98927.38
2023-09-23T17:53:25.463Z,98934.19
2023-09-23T17:56:28.453Z,98942.56
2023-09-23T17:59:32.702Z,98946.53
2023-09-23T18:02:37.173Z,98954.53
2023-09-23T18:05:39.818Z,98955.72
2023-09-23T18:08:42.985Z,98955.38
2023-09-23T18:11:45.602Z,98964.94
2023-09-23T18:14:50.333Z,98973.72
2023-09-23T18:17:53.405Z,98972.16
2023-09-23T18:20:56.144Z,98979.31
2023-09-23T18:23:58.907Z,99000.88
2023-09-23T18:27:01.756Z,99002.88
2023-09-23T18:30:06.641Z,99022.41
2023-09-23T18:33:09.348Z,99027.19
2023-09-23T18:36:12.774Z,99029.19
2023-09-23T18:39:15.364Z,99040.34
2023-09-23T18:42:17.889Z,99042.34
2023-09-23T18:45:21.868Z,99047.94
2023-09-23T18:48:27.990Z,99047.16
2023-09-23T18:51:31.896Z,99051.16
2023-09-23T18:54:35.160Z,99057.53
2023-09-23T18:57:37.690Z,99058.31
2023-09-23T19:00:41.617Z,99068.72
2023-09-23T19:03:44.457Z,99063.13
2023-09-23T19:06:47.152Z,99073.09
2023-09-23T19:09:50.181Z,99077.09
2023-09-23T19:12:53.822Z,99081.88
2023-09-23T19:15:57.862Z,99093.47
2023-09-23T19:19:00.433Z,99103.44
2023-09-23T19:22:03.026Z,99101.06
2023-09-23T19:25:06.578Z,99101.06
2023-09-23T19:28:09.187Z,99112.22
2023-09-23T19:31:14.607Z,99113.44
2023-09-23T19:34:18.362Z,99116.22
2023-09-23T19:37:20.950Z,99119.81
2023-09-23T19:40:23.834Z,99127.41
2023-09-23T19:43:27.083Z,99125.41
2023-09-23T19:46:31.348Z,99132.19
2023-09-23T19:49:34.811Z,99125.41
2023-09-23T19:52:37.490Z,99137.41
2023-09-23T19:55:40.026Z,99138.97
2023-09-23T19:58:44.451Z,99139.34
2023-09-23T20:01:48.890Z,99150.16
2023-09-23T20:04:51.919Z,99155.75
2023-09-23T20:07:54.355Z,99155.72
2023-09-23T20:10:59.897Z,99145.75
2023-09-23T20:14:02.506Z,99150.53
2023-09-23T20:17:07.601Z,99151.75
2023-09-23T20:20:10.678Z,99152.53
2023-09-23T20:23:13.173Z,99153.31
2023-09-23T20:26:16.446Z,99154.53
2023-09-23T20:29:19.058Z,99162.13
2023-09-23T20:32:22.995Z,99175.28
2023-09-23T20:35:25.690Z,99170.50
2023-09-23T20:38:28.424Z,99169.69
2023-09-23T20:41:31.382Z,99172.50
2023-09-23T20:44:33.849Z,99178.47
2023-09-23T20:47:40.607Z,99172.50
2023-09-23T20:50:43.833Z,99181.66
2023-09-23T20:53:48.779Z,99191.25
2023-09-23T20:56:51.549Z,99188.47
2023-09-23T20:59:54.138Z,99196.03
2023-09-23T21:02:58.202Z,99189.63
2023-09-23T21:06:00.824Z,99195.22
2023-09-23T21:09:04.783Z,99198.00
2023-09-23T21:12:07.828Z,99199.22
2023-09-23T21:15:15.632Z,99200.44
2023-09-23T21:18:19.653Z,99198.41
2023-09-23T21:21:22.260Z,99203.59
2023-09-23T21:24:25.299Z,99211.97
2023-09-23T21:27:27.695Z,99215.59
2023-09-23T21:30:30.225Z,99220.34
2023-09-23T21:33:34.567Z,99221.56
2023-09-23T21:36:40.021Z,99210.38
2023-09-23T21:39:42.843Z,99224.34
2023-09-23T21:42:45.384Z,99229.16
2023-09-23T21:45:47.951Z,99226.34
2023-09-23T21:48:51.920Z,99235.53
2023-09-23T21:51:54.492Z,99228.34
2023-09-23T21:54:57.056Z,99234.72
2023-09-23T21:57:59.613Z,99238.72
2023-09-23T22:01:02.609Z,99239.53
2023-09-23T22:04:08.280Z,99234.31
2023-09-23T22:07:11.187Z,99239.53
2023-09-23T22:10:13.769Z,99239.53
2023-09-23T22:13:18.843Z,99245.09
2023-09-23T22:16:21.375Z,99254.69
2023-09-23T22:19:25.253Z,99249.09
2023-09-23T22:22:30.278Z,99242.31
2023-09-23T22:25:34.346Z,99246.31
2023-09-23T22:28:37.019Z,99237.13
2023-09-23T22:31:40.072Z,99239.13
2023-09-23T22:34:44.314Z,99249.09
2023-09-23T22:37:46.843Z,99246.31
2023-09-23T22:40:50.914Z,99245.50
2023-09-23T22:43:53.482Z,99238.34
2023-09-23T22:46:56.048Z,99231.56
2023-09-23T22:50:00.246Z,99231.56
2023-09-23T22:53:03.532Z,99237.13
2023-09-23T22:56:08.323Z,99243.94
2023-09-23T22:59:11.706Z,99245.91
2023-09-23T23:02:14.789Z,99252.31
2023-09-23T23:05:19.026Z,99252.31
2023-09-23T23:08:21.729Z,99250.72
2023-09-23T23:11:25.150Z,99250.72
2023-09-23T23:14:27.771Z,99257.09
2023-09-23T23:17:30.465Z,99261.88
2023-09-23T23:20:35.799Z,99254.69
2023-09-23T23:23:38.624Z,99262.22
2023-09-23T23:26:41.317Z,99255.06
2023-09-23T23:29:45.866Z,99259.44
2023-09-23T23:32:49.450Z,99261.44
2023-09-23T23:35:57.874Z,99263.44
2023-09-23T23:39:01.647Z,99271.81
2023-09-23T23:42:04.430Z,99274.59
2023-09-23T23:45:08.131Z,99269.03
2023-09-23T23:48:10.785Z,99275.81
2023-09-23T23:51:17.364Z,99270.63
2023-09-23T23:54:20.324Z,99272.22
2023-09-23T23:57:23.976Z,99282.59
